Time;durP1;ratioP1;P1;durP2;ratioP2;P2;SDS_P1;SDS_P2;PMS_P1;PMS_P2;Temp;Humidity;BMP_temperature;BMP_pressure;BME280_temperature;BME280_humidity;BME280_pressure;Samples;Min_cycle;Max_cycle;Signal;HPM_P1;HPM_P2
2022/02/06 00:00:10;;;;;;;7.05;1.48;;;6.70;99.90;;;;;;5050956;28;20028;-76
2022/02/06 00:02:39;;;;;;;7.43;1.30;;;6.70;99.90;;;;;;5051967;28;20033;-76
2022/02/06 00:05:05;;;;;;;6.70;1.20;;;8.40;99.90;;;;;;5051696;28;20490;-76
2022/02/06 00:07:31;;;;;;;4.45;0.85;;;6.60;99.90;;;;;;5051703;28;20063;-76
2022/02/06 00:09:57;;;;;;;7.60;1.45;;;7.70;99.90;;;;;;5050467;28;20047;-76
2022/02/06 00:12:23;;;;;;;3.08;1.08;;;7.60;99.90;;;;;;5050521;28;20033;-77
2022/02/06 00:14:49;;;;;;;5.30;1.20;;;6.60;99.90;;;;;;5051688;28;20468;-76
2022/02/06 00:17:14;;;;;;;7.60;1.05;;;6.60;99.90;;;;;;5051483;28;20087;-76
2022/02/06 00:19:42;;;;;;;5.45;1.20;;;6.70;99.90;;;;;;5050682;28;20039;-76
2022/02/06 00:22:11;;;;;;;2.55;0.80;;;6.70;99.90;;;;;;5051449;28;20512;-76
2022/02/06 00:24:55;;;;;;;6.85;1.25;;;6.80;99.90;;;;;;5051433;28;20029;-76
2022/02/06 00:27:33;;;;;;;3.13;0.88;;;6.80;99.90;;;;;;5050592;28;20498;-76
2022/02/06 00:30:11;;;;;;;3.50;1.00;;;6.60;99.90;;;;;;5050884;28;20078;-76
2022/02/06 00:32:44;;;;;;;4.68;0.80;;;6.40;99.90;;;;;;5051656;28;20071;-76
2022/02/06 00:35:22;;;;;;;4.00;1.00;;;6.60;99.90;;;;;;5051841;28;20021;-76
2022/02/06 00:43:16;;;;;;;4.68;1.58;;;6.50;99.90;;;;;;5051680;28;20079;-76
2022/02/06 00:45:42;;;;;;;6.72;1.17;;;6.50;99.90;;;;;;5051493;28;20044;-76
2022/02/06 00:48:07;;;;;;;5.90;1.13;;;6.50;99.90;;;;;;5051091;28;20037;-76
2022/02/06 00:50:38;;;;;;;3.13;1.30;;;6.60;99.90;;;;;;5050292;28;20059;-76
2022/02/06 00:53:14;;;;;;;3.13;0.75;;;6.40;99.90;;;;;;5051452;28;20553;-76
2022/02/06 00:55:39;;;;;;;6.95;1.23;;;6.20;99.90;;;;;;5051295;28;20478;-76
2022/02/06 00:58:05;;;;;;;7.50;1.35;;;6.50;99.90;;;;;;5051394;28;20017;-76
2022/02/06 01:00:31;;;;;;;5.03;0.90;;;6.50;99.90;;;;;;5054048;28;20037;-76
2022/02/06 01:02:57;;;;;;;2.45;1.00;;;6.50;99.90;;;;;;5054934;28;20032;-76
2022/02/06 01:05:22;;;;;;;3.72;1.00;;;6.50;99.90;;;;;;5054785;28;20413;-76
2022/02/06 01:07:50;;;;;;;6.72;1.02;;;6.50;99.90;;;;;;5054854;28;20162;-76
2022/02/06 01:10:16;;;;;;;1.58;0.75;;;6.50;99.90;;;;;;5054448;28;20043;-76
2022/02/06 01:12:46;;;;;;;3.40;0.90;;;6.20;99.90;;;;;;5055288;28;20079;-76
2022/02/06 01:15:20;;;;;;;4.38;0.80;;;6.50;99.90;;;;;;5055104;28;20021;-76
2022/02/06 01:17:52;;;;;;;2.47;0.70;;;6.70;99.90;;;;;;5054542;28;20021;-76
2022/02/06 01:20:23;;;;;;;3.50;0.90;;;6.50;99.90;;;;;;5054123;28;20048;-76
2022/02/06 01:22:55;;;;;;;3.85;1.00;;;6.30;99.90;;;;;;5054769;28;20057;-76
2022/02/06 01:25:31;;;;;;;5.78;1.33;;;7.50;99.90;;;;;;5054425;28;20079;-76
2022/02/06 01:28:03;;;;;;;6.97;1.48;;;6.50;99.90;;;;;;5054793;28;20036;-76
2022/02/06 01:33:07;;;;;;;8.82;1.08;;;6.20;99.90;;;;;;5034954;28;20117;-76
2022/02/06 01:38:35;;;;;;;3.38;0.98;;;6.30;99.90;;;;;;5014926;28;20109;-76
2022/02/06 01:41:07;;;;;;;3.10;0.88;;;7.10;99.90;;;;;;5040678;28;20433;-76
2022/02/06 01:43:44;;;;;;;6.60;1.13;;;7.60;99.90;;;;;;5054722;28;20044;-76
2022/02/06 02:12:59;;;;;;;7.15;1.30;;;6.00;99.90;;;;;;5053227;28;20039;-76
2022/02/06 02:47:19;;;;;;;5.07;1.02;;;6.00;99.90;;;;;;5053283;28;20500;-76
2022/02/06 02:49:51;;;;;;;5.03;1.23;;;5.80;99.90;;;;;;5034131;28;20037;-76
2022/02/06 02:53:13;;;;;;;4.35;1.30;;;7.10;99.90;;;;;;5053084;28;20021;-76
2022/02/06 03:00:41;;;;;;;5.07;1.10;;;5.80;99.90;;;;;;5052058;28;20444;-76
2022/02/06 03:03:28;;;;;;;5.70;0.95;;;5.70;99.90;;;;;;5052822;28;20031;-76
2022/02/06 03:05:56;;;;;;;2.83;0.93;;;5.90;99.90;;;;;;5053143;28;20025;-76
2022/02/06 03:08:22;;;;;;;7.00;0.90;;;6.90;99.90;;;;;;5052967;28;20025;-76
2022/02/06 03:10:51;;;;;;;3.30;1.10;;;5.80;99.90;;;;;;5053190;28;20041;-76
2022/02/06 03:13:19;;;;;;;3.58;0.90;;;6.00;99.90;;;;;;5052200;28;20021;-76
2022/02/06 03:16:00;;;;;;;4.35;0.82;;;5.90;99.90;;;;;;5052719;28;20509;-76
2022/02/06 03:18:30;;;;;;;4.20;0.80;;;5.90;99.90;;;;;;5052070;28;20017;-76
2022/02/06 03:20:56;;;;;;;9.10;1.08;;;5.90;99.90;;;;;;5052253;28;20040;-76
2022/02/06 03:23:24;;;;;;;5.82;1.08;;;5.90;99.90;;;;;;5052276;28;20389;-76
2022/02/06 03:25:55;;;;;;;6.53;1.20;;;5.80;99.90;;;;;;5052381;28;20021;-76
2022/02/06 03:28:22;;;;;;;5.07;1.00;;;6.70;99.90;;;;;;5052276;28;20025;-76
2022/02/06 03:30:49;;;;;;;4.75;0.98;;;5.80;99.90;;;;;;5051807;28;20029;-76
2022/02/06 03:33:14;;;;;;;2.45;1.00;;;5.90;99.90;;;;;;5051098;28;20036;-76
2022/02/06 03:35:41;;;;;;;5.13;1.23;;;6.90;99.90;;;;;;5052838;28;20025;-76
2022/02/06 03:38:07;;;;;;;4.35;1.15;;;5.90;99.90;;;;;;5052937;28;20059;-77
2022/02/06 03:40:43;;;;;;;4.00;1.23;;;6.10;99.90;;;;;;5051338;28;20044;-77
2022/02/06 03:43:16;;;;;;;3.65;1.33;;;6.20;99.90;;;;;;5051928;28;20025;-76
2022/02/06 03:45:51;;;;;;;4.45;1.17;;;5.90;99.90;;;;;;5052214;28;20641;-77
2022/02/06 03:48:28;;;;;;;4.18;1.02;;;5.90;99.90;;;;;;5051814;28;20444;-76
2022/02/06 03:51:00;;;;;;;2.67;0.52;;;6.20;99.90;;;;;;5051825;28;20564;-76
2022/02/06 03:53:27;;;;;;;7.40;0.83;;;5.80;99.90;;;;;;5051767;28;20421;-76
2022/02/06 03:55:53;;;;;;;6.70;0.85;;;7.70;99.90;;;;;;5065155;22;20453;-78
2022/02/06 03:58:20;;;;;;;7.32;1.10;;;5.90;99.90;;;;;;5051588;28;20021;-78
2022/02/06 04:00:45;;;;;;;3.08;0.82;;;5.80;99.90;;;;;;5046325;28;20030;-78
2022/02/06 04:03:12;;;;;;;4.25;0.98;;;6.00;99.90;;;;;;5031987;28;20036;-78
2022/02/06 04:05:38;;;;;;;3.50;0.80;;;5.90;99.90;;;;;;5031879;28;20152;-77
2022/02/06 04:08:07;;;;;;;4.72;1.10;;;6.00;99.90;;;;;;5031926;28;20030;-78
2022/02/06 04:10:41;;;;;;;4.82;0.88;;;6.00;99.90;;;;;;5029465;28;20037;-78
2022/02/06 04:13:07;;;;;;;4.32;0.80;;;6.10;99.90;;;;;;5031817;28;20026;-77
2022/02/06 04:15:39;;;;;;;5.00;1.50;;;5.90;99.90;;;;;;5030441;28;20038;-77
2022/02/06 04:18:12;;;;;;;3.78;0.77;;;6.40;99.90;;;;;;5031804;28;20036;-77
2022/02/06 04:20:39;;;;;;;7.68;1.67;;;6.10;99.90;;;;;;5029710;28;20061;-77
2022/02/06 04:23:05;;;;;;;5.53;1.00;;;6.10;99.90;;;;;;5031782;28;20033;-78
2022/02/06 04:25:31;;;;;;;2.92;0.52;;;6.10;99.90;;;;;;5031334;28;20022;-77
2022/02/06 04:27:56;;;;;;;4.47;1.00;;;6.10;99.90;;;;;;5030386;28;20032;-77
2022/02/06 04:30:22;;;;;;;2.97;0.95;;;6.20;99.90;;;;;;5031159;28;20064;-77
2022/02/06 04:32:48;;;;;;;5.65;2.05;;;6.30;99.90;;;;;;5031991;28;20085;-77
2022/02/06 04:35:18;;;;;;;5.55;1.42;;;6.20;99.90;;;;;;5035139;28;20554;-79
2022/02/06 04:40:26;;;;;;;4.03;0.70;;;6.20;99.90;;;;;;5033775;28;20096;-78
2022/02/06 04:43:17;;;;;;;5.95;1.13;;;6.30;99.90;;;;;;5035708;28;20551;-78
2022/02/06 04:49:04;;;;;;;6.82;0.80;;;6.20;99.90;;;;;;5034947;28;20036;-78
2022/02/06 05:16:18;;;;;;;5.57;1.27;;;6.40;99.90;;;;;;5034834;28;20409;-77
2022/02/06 05:21:39;;;;;;;2.45;0.55;;;6.30;99.90;;;;;;5034733;28;20402;-78
2022/02/06 05:29:51;;;;;;;3.47;0.90;;;6.60;99.90;;;;;;5033256;28;20056;-77
2022/02/06 05:34:12;;;;;;;6.63;1.17;;;6.60;99.90;;;;;;5036070;28;20025;-78
2022/02/06 05:36:37;;;;;;;4.45;1.15;;;6.60;99.90;;;;;;5033152;28;20478;-77
2022/02/06 05:39:03;;;;;;;4.88;1.10;;;7.70;99.90;;;;;;5033969;28;20108;-78
2022/02/06 05:41:29;;;;;;;5.13;1.02;;;6.60;99.90;;;;;;5034907;28;20105;-78
2022/02/06 05:43:55;;;;;;;4.30;0.80;;;6.60;99.90;;;;;;5034340;28;20036;-77
2022/02/06 05:46:21;;;;;;;6.82;1.10;;;7.60;99.90;;;;;;5047469;28;20033;-77
2022/02/06 05:48:46;;;;;;;12.30;1.33;;;7.20;99.90;;;;;;5058156;28;20029;-77
2022/02/06 05:51:16;;;;;;;5.20;0.80;;;6.50;99.90;;;;;;5052648;28;20029;-77
2022/02/06 05:53:42;;;;;;;9.10;0.90;;;8.00;99.90;;;;;;5054680;28;20018;-77
2022/02/06 05:56:08;;;;;;;5.80;0.80;;;7.00;99.90;;;;;;5043014;28;20565;-78
2022/02/06 05:58:34;;;;;;;6.45;1.23;;;6.60;99.90;;;;;;5034131;28;20068;-77
2022/02/06 06:01:00;;;;;;;7.18;0.80;;;6.60;99.90;;;;;;5066173;28;20063;-77
2022/02/06 06:03:26;;;;;;;7.00;1.10;;;6.60;99.90;;;;;;5034271;28;20096;-78
2022/02/06 06:05:51;;;;;;;4.50;0.77;;;6.60;99.90;;;;;;5034136;28;20028;-78
2022/02/06 06:08:17;;;;;;;4.75;0.68;;;6.70;99.90;;;;;;5033926;28;20038;-78
2022/02/06 06:10:43;;;;;;;6.10;1.27;;;6.60;99.90;;;;;;5034003;28;20390;-78
2022/02/06 06:13:09;;;;;;;4.47;1.15;;;6.60;99.90;;;;;;5034109;28;20022;-78
2022/02/06 06:15:35;;;;;;;5.22;1.02;;;6.60;99.90;;;;;;5033982;28;20037;-78
2022/02/06 06:18:04;;;;;;;5.32;0.95;;;6.80;99.90;;;;;;5033995;28;20100;-78
2022/02/06 06:20:32;;;;;;;5.28;1.13;;;6.80;99.90;;;;;;5033443;28;20029;-77
2022/02/06 06:22:58;;;;;;;2.42;1.05;;;7.00;99.90;;;;;;5031949;28;20064;-78
2022/02/06 06:25:26;;;;;;;1.67;0.45;;;6.70;99.90;;;;;;5033515;28;20616;-77
2022/02/06 06:27:52;;;;;;;5.97;0.93;;;6.80;99.90;;;;;;5032677;28;20416;-75
2022/02/06 06:30:18;;;;;;;3.75;0.90;;;6.80;99.90;;;;;;5031857;28;20112;-75
2022/02/06 06:32:43;;;;;;;5.35;0.90;;;6.80;99.90;;;;;;5032341;28;20026;-75
2022/02/06 06:35:09;;;;;;;5.80;0.77;;;6.80;99.90;;;;;;5033561;28;20490;-75
2022/02/06 06:37:41;;;;;;;6.82;0.90;;;7.10;99.90;;;;;;5032418;28;20053;-78
2022/02/06 06:40:07;;;;;;;6.32;1.15;;;6.90;99.90;;;;;;5032452;28;20041;-78
2022/02/06 06:42:33;;;;;;;3.70;0.90;;;6.60;99.90;;;;;;5032965;28;20513;-78
2022/02/06 06:44:58;;;;;;;3.15;0.80;;;6.60;99.90;;;;;;5033197;28;20034;-78
2022/02/06 06:47:24;;;;;;;3.45;0.70;;;6.70;99.90;;;;;;5031920;28;20076;-78
2022/02/06 06:49:49;;;;;;;4.82;1.10;;;6.80;99.90;;;;;;5032718;28;20036;-77
2022/02/06 06:52:15;;;;;;;5.38;0.82;;;6.80;99.90;;;;;;5033146;28;20036;-78
2022/02/06 06:54:48;;;;;;;4.03;0.93;;;6.80;99.90;;;;;;5033768;28;20386;-78
2022/02/06 06:57:20;;;;;;;4.13;1.15;;;6.80;99.90;;;;;;5031997;28;20041;-77
2022/02/06 07:04:57;;;;;;;4.10;1.10;;;6.80;99.90;;;;;;5033048;28;20053;-77
2022/02/06 07:07:27;;;;;;;6.97;1.02;;;7.90;99.90;;;;;;5033137;28;20502;-77
2022/02/06 07:09:53;;;;;;;5.78;0.85;;;7.70;99.90;;;;;;5031285;28;20045;-79
2022/02/06 07:12:19;;;;;;;4.65;1.20;;;7.10;99.90;;;;;;5032843;28;20029;-79
2022/02/06 07:14:47;;;;;;;4.43;1.10;;;6.90;99.90;;;;;;5032870;28;20474;-78
2022/02/06 07:17:13;;;;;;;4.22;0.90;;;7.20;99.90;;;;;;5032934;28;20022;-79
2022/02/06 07:19:40;;;;;;;3.95;0.90;;;9.10;99.90;;;;;;5034700;28;20076;-78
2022/02/06 07:22:09;;;;;;;4.68;0.70;;;7.10;99.90;;;;;;5032731;28;20060;-77
2022/02/06 07:24:35;;;;;;;5.72;0.85;;;8.50;99.90;;;;;;5035652;28;20627;-78
2022/02/06 07:27:04;;;;;;;6.57;0.80;;;7.20;99.90;;;;;;5035934;28;20030;-79
2022/02/06 07:29:30;;;;;;;4.00;0.77;;;7.10;99.90;;;;;;5034932;28;20056;-76
2022/02/06 07:31:59;;;;;;;4.63;0.63;;;7.30;99.90;;;;;;5032404;28;20130;-77
2022/02/06 07:34:25;;;;;;;2.83;0.50;;;7.20;99.90;;;;;;5032700;28;20485;-81
2022/02/06 07:36:50;;;;;;;6.72;1.25;;;7.90;99.90;;;;;;5033508;28;20043;-77
2022/02/06 07:39:16;;;;;;;5.13;0.90;;;6.90;99.90;;;;;;5032022;28;20026;-76
2022/02/06 07:41:42;;;;;;;7.25;0.75;;;7.00;99.90;;;;;;5032922;28;20029;-77
2022/02/06 07:44:07;;;;;;;2.60;0.70;;;6.60;99.90;;;;;;5032976;28;20113;-79
2022/02/06 07:46:42;;;;;;;5.40;0.98;;;6.90;99.90;;;;;;5032278;28;20036;-78
2022/02/06 07:49:08;;;;;;;2.92;0.95;;;6.80;99.90;;;;;;5032154;28;20063;-76
2022/02/06 07:51:35;;;;;;;4.90;1.08;;;6.70;99.90;;;;;;5033009;28;20044;-78
2022/02/06 07:54:02;;;;;;;9.13;1.20;;;6.60;99.90;;;;;;5035520;28;20105;-78
2022/02/06 07:56:27;;;;;;;6.68;1.00;;;6.80;99.90;;;;;;5014380;28;20038;-77
2022/02/06 07:58:53;;;;;;;4.13;0.98;;;7.10;99.90;;;;;;5031380;28;20035;-76
2022/02/06 08:01:19;;;;;;;7.78;1.70;;;7.00;99.90;;;;;;5032388;28;20504;-76
2022/02/06 08:03:44;;;;;;;4.90;0.90;;;7.20;99.90;;;;;;5032122;28;20033;-76
2022/02/06 08:06:12;;;;;;;7.50;1.55;;;7.10;99.90;;;;;;5031890;28;20080;-76
2022/02/06 08:08:38;;;;;;;2.78;0.75;;;8.20;99.90;;;;;;5030440;28;20026;-77
2022/02/06 08:11:04;;;;;;;2.33;0.70;;;7.10;99.90;;;;;;5031995;28;20044;-77
2022/02/06 08:13:40;;;;;;;4.60;0.80;;;7.10;99.90;;;;;;5031844;28;20056;-77
2022/02/06 08:16:06;;;;;;;1.77;0.57;;;8.50;99.90;;;;;;5012466;28;20026;-77
2022/02/06 08:18:36;;;;;;;4.32;0.95;;;8.60;99.90;;;;;;5016449;28;20092;-78
2022/02/06 08:21:03;;;;;;;2.38;0.55;;;7.10;99.90;;;;;;5018527;28;20049;-77
2022/02/06 08:23:29;;;;;;;4.15;0.75;;;7.20;99.90;;;;;;5033269;28;20060;-79
2022/02/06 08:25:56;;;;;;;7.95;1.08;;;7.10;99.90;;;;;;5037228;28;20029;-77
2022/02/06 08:28:21;;;;;;;6.63;0.90;;;7.20;99.90;;;;;;5034082;28;20022;-78
2022/02/06 08:30:47;;;;;;;7.20;0.77;;;8.00;99.90;;;;;;5033011;28;20532;-77
2022/02/06 08:33:14;;;;;;;5.53;1.17;;;7.20;99.90;;;;;;5014409;28;20108;-77
2022/02/06 08:35:39;;;;;;;2.20;0.40;;;7.20;99.90;;;;;;5030383;28;20036;-77
2022/02/06 08:38:05;;;;;;;2.10;0.73;;;8.80;99.90;;;;;;5033984;28;20030;-77
2022/02/06 08:40:31;;;;;;;5.88;0.75;;;7.40;99.90;;;;;;5031272;28;20458;-76
2022/02/06 08:43:00;;;;;;;2.30;0.90;;;7.30;99.90;;;;;;5030323;28;20037;-78
2022/02/06 08:45:28;;;;;;;2.67;0.70;;;7.30;99.90;;;;;;5030152;28;20034;-77
2022/02/06 08:47:54;;;;;;;5.97;0.80;;;7.10;99.90;;;;;;5030311;28;20051;-77
2022/02/06 08:50:19;;;;;;;3.60;0.70;;;6.90;99.90;;;;;;5046115;28;20559;-77
2022/02/06 08:52:46;;;;;;;5.80;0.90;;;6.70;99.90;;;;;;5031195;28;20401;-77
2022/02/06 08:55:12;;;;;;;2.92;0.93;;;8.30;99.90;;;;;;5031270;28;20125;-77
2022/02/06 08:57:45;;;;;;;6.00;0.85;;;6.80;99.90;;;;;;5031207;28;20021;-77
2022/02/06 09:00:11;;;;;;;;;;;6.80;99.90;;;;;;5031201;28;20040;-77
2022/02/06 09:02:36;;;;;;;5.60;0.70;;;6.90;99.90;;;;;;5031288;28;19905;-77
2022/02/06 09:05:03;;;;;;;2.42;0.65;;;7.00;99.90;;;;;;5030245;28;20403;-77
2022/02/06 09:07:29;;;;;;;1.95;0.52;;;6.90;99.90;;;;;;5031534;28;20060;-76
2022/02/06 09:09:59;;;;;;;2.95;0.63;;;9.00;99.90;;;;;;5024325;28;20076;-78
2022/02/06 09:12:27;;;;;;;3.63;1.13;;;7.90;99.90;;;;;;5025360;28;20036;-77
2022/02/06 09:14:52;;;;;;;5.57;1.40;;;7.20;99.90;;;;;;5027034;28;20049;-78
2022/02/06 09:17:19;;;;;;;3.13;0.80;;;7.30;99.90;;;;;;5028677;28;20072;-77
2022/02/06 09:19:45;;;;;;;1.38;0.40;;;7.20;99.90;;;;;;5036349;28;20032;-77
2022/02/06 09:22:11;;;;;;;7.40;1.00;;;7.20;99.90;;;;;;5030013;28;20026;-77
2022/02/06 09:24:37;;;;;;;8.32;0.98;;;7.30;99.90;;;;;;5029509;28;20021;-77
2022/02/06 09:27:03;;;;;;;1.65;0.60;;;9.40;99.90;;;;;;5029847;28;20444;-78
2022/02/06 09:29:29;;;;;;;4.63;0.60;;;7.30;99.90;;;;;;5038083;28;20050;-77
2022/02/06 09:31:56;;;;;;;2.80;1.23;;;7.40;99.90;;;;;;5032392;28;20112;-77
2022/02/06 09:36:48;;;;;;;3.95;0.60;;;7.40;99.90;;;;;;5030137;28;20028;-78
2022/02/06 09:39:15;;;;;;;2.60;0.43;;;8.90;99.90;;;;;;5030697;28;20022;-76
2022/02/06 09:41:45;;;;;;;4.20;0.73;;;7.50;99.90;;;;;;5032280;28;20030;-76
2022/02/06 09:44:12;;;;;;;4.00;0.93;;;7.40;99.90;;;;;;5034064;28;20026;-77
2022/02/06 09:46:40;;;;;;;2.80;1.00;;;7.60;99.90;;;;;;5033462;28;20041;-76
2022/02/06 09:49:06;;;;;;;4.70;0.75;;;7.40;99.90;;;;;;5016496;28;20037;-77
2022/02/06 09:51:32;;;;;;;4.68;0.68;;;7.60;99.90;;;;;;5034537;28;20056;-76
2022/02/06 09:53:59;;;;;;;2.88;0.60;;;7.40;99.90;;;;;;5034113;28;20076;-76
2022/02/06 09:56:28;;;;;;;2.15;0.60;;;7.50;99.90;;;;;;5043953;28;20124;-75
2022/02/06 09:59:03;;;;;;;3.22;0.82;;;7.20;99.90;;;;;;5067458;22;20063;-76
2022/02/06 10:01:33;;;;;;;0.77;0.40;;;9.30;99.90;;;;;;5044509;28;20095;-77
2022/02/06 10:04:05;;;;;;;3.92;0.85;;;8.00;99.90;;;;;;5033357;28;20454;-77
2022/02/06 10:06:40;;;;;;;3.00;0.40;;;7.30;99.90;;;;;;5034517;28;20034;-76
2022/02/06 10:09:08;;;;;;;1.45;0.50;;;7.20;99.90;;;;;;5038170;28;20473;-77
2022/02/06 10:11:41;;;;;;;3.35;0.55;;;7.10;99.90;;;;;;5054298;28;20060;-77
2022/02/06 10:14:06;;;;;;;5.80;0.73;;;7.00;99.90;;;;;;5056367;28;20124;-78
2022/02/06 10:16:32;;;;;;;1.20;0.40;;;8.30;99.90;;;;;;5039128;28;20064;-78
2022/02/06 10:18:58;;;;;;;3.35;0.50;;;7.00;99.90;;;;;;5033792;28;20033;-77
2022/02/06 10:21:31;;;;;;;1.95;0.60;;;6.70;99.90;;;;;;5037042;28;20026;-78
2022/02/06 10:24:11;;;;;;;3.05;1.08;;;6.70;99.90;;;;;;5037410;28;20034;-78
2022/02/06 10:27:12;;;;;;;5.10;1.02;;;7.40;99.90;;;;;;5068707;28;20061;-78
2022/02/06 10:29:37;;;;;;;3.10;0.63;;;6.90;99.90;;;;;;5033403;28;20041;-77
2022/02/06 10:32:04;;;;;;;4.60;0.47;;;6.80;99.90;;;;;;5032257;28;20037;-77
2022/02/06 10:34:33;;;;;;;2.33;0.50;;;6.90;99.90;;;;;;5033752;28;20014;-78
2022/02/06 10:37:20;;;;;;;2.40;0.70;;;6.80;99.90;;;;;;5034933;28;20057;-79
2022/02/06 10:40:05;;;;;;;3.85;0.70;;;6.60;99.90;;;;;;5034315;28;20470;-76
2022/02/06 10:42:44;;;;;;;2.38;1.02;;;6.60;99.90;;;;;;5032984;28;20042;-76
2022/02/06 10:45:16;;;;;;;2.45;0.40;;;7.20;99.90;;;;;;5033160;28;20497;-75
2022/02/06 10:47:42;;;;;;;5.37;1.43;;;6.60;99.90;;;;;;5033319;28;20432;-74
2022/02/06 10:50:15;;;;;;;1.83;0.90;;;7.80;99.90;;;;;;5032257;28;20037;-77
2022/02/06 10:52:42;;;;;;;5.75;1.05;;;6.50;99.90;;;;;;5031864;28;20017;-77
2022/02/06 10:55:08;;;;;;;2.10;0.60;;;6.40;99.90;;;;;;5033887;28;20029;-77
2022/02/06 10:57:52;;;;;;;3.25;0.70;;;6.10;99.90;;;;;;5032946;28;20410;-77
2022/02/06 11:00:32;;;;;;;8.30;0.70;;;6.30;99.90;;;;;;5032647;28;20501;-77
2022/02/06 11:03:04;;;;;;;2.42;0.90;;;6.10;99.90;;;;;;5033003;28;20033;-77
2022/02/06 11:05:46;;;;;;;3.67;0.60;;;6.30;99.90;;;;;;5032793;28;20022;-76
2022/02/06 11:08:23;;;;;;;9.37;0.73;;;6.10;99.90;;;;;;5031473;28;20039;-76
2022/02/06 11:10:56;;;;;;;7.45;0.93;;;6.30;99.90;;;;;;5032272;28;20280;-76
2022/02/06 11:13:21;;;;;;;3.58;1.00;;;6.00;99.90;;;;;;5033009;28;20064;-77
2022/02/06 11:15:47;;;;;;;4.22;1.45;;;6.10;99.90;;;;;;5032696;28;20482;-76
2022/02/06 11:18:20;;;;;;;1.63;0.52;;;5.90;99.90;;;;;;5031563;28;20033;-76
2022/02/06 11:20:52;;;;;;;3.08;0.85;;;6.20;99.90;;;;;;5032162;28;20041;-77
2022/02/06 11:23:18;;;;;;;3.53;0.80;;;5.90;99.90;;;;;;5033985;28;20026;-82
2022/02/06 11:25:44;;;;;;;3.95;1.20;;;6.00;99.90;;;;;;5032013;28;20717;-75
2022/02/06 11:28:12;;;;;;;2.15;0.45;;;5.90;99.90;;;;;;5032439;28;20021;-75
2022/02/06 11:30:42;;;;;;;4.30;0.77;;;6.30;99.90;;;;;;5031860;28;20029;-75
2022/02/06 11:33:08;;;;;;;4.47;1.20;;;5.90;99.90;;;;;;5030957;28;20032;-75
2022/02/06 11:35:37;;;;;;;4.50;0.80;;;6.10;99.90;;;;;;5032497;28;20025;-75
2022/02/06 11:44:28;;;;;;;3.13;0.85;;;5.90;99.90;;;;;;5032499;28;20040;-75
2022/02/06 11:47:08;;;;;;;2.63;0.77;;;6.00;99.90;;;;;;5032162;28;20112;-75
2022/02/06 11:49:46;;;;;;;3.42;0.82;;;6.30;99.90;;;;;;5031832;28;20022;-75
2022/02/06 11:52:13;;;;;;;2.30;0.70;;;6.00;99.90;;;;;;5032035;28;20025;-75
2022/02/06 11:54:52;;;;;;;7.13;1.58;;;6.10;99.90;;;;;;5031132;28;20079;-75
2022/02/06 11:57:24;;;;;;;3.72;0.80;;;6.20;99.90;;;;;;5031807;28;20029;-75
2022/02/06 12:00:09;;;;;;;3.53;0.95;;;6.10;99.90;;;;;;5030915;28;20063;-75
2022/02/06 12:02:40;;;;;;;1.80;0.68;;;6.10;99.90;;;;;;5018050;28;20063;-76
2022/02/06 12:05:08;;;;;;;2.05;0.63;;;6.40;99.90;;;;;;5030656;28;20370;-76
2022/02/06 12:07:52;;;;;;;1.42;0.52;;;6.20;99.90;;;;;;5031602;28;20075;-75
2022/02/06 12:10:33;;;;;;;2.15;0.80;;;6.20;99.90;;;;;;5030627;28;20033;-75
2022/02/06 12:13:23;;;;;;;0.77;0.40;;;6.00;99.90;;;;;;5031514;28;20025;-75
2022/02/06 12:15:50;;;;;;;1.85;0.40;;;7.10;99.90;;;;;;5030496;28;20112;-75
2022/02/06 12:18:35;;;;;;;3.60;0.50;;;7.00;99.90;;;;;;5031562;28;20028;-74
2022/02/06 12:21:09;;;;;;;1.95;0.68;;;6.30;99.90;;;;;;5031358;28;20057;-74
2022/02/06 12:23:49;;;;;;;3.10;0.75;;;6.40;99.90;;;;;;5031667;28;20029;-74
2022/02/06 12:26:28;;;;;;;2.30;0.40;;;6.40;99.90;;;;;;5031751;28;20025;-74
2022/02/06 12:28:55;;;;;;;4.28;0.80;;;6.40;99.90;;;;;;5030870;28;20025;-75
2022/02/06 12:31:33;;;;;;;3.92;0.60;;;6.30;99.90;;;;;;5030214;28;20401;-75
2022/02/06 12:39:24;;;;;;;2.45;0.93;;;6.30;99.90;;;;;;5031104;28;20055;-74
2022/02/06 12:41:51;;;;;;;1.23;0.70;;;6.30;99.90;;;;;;5031474;28;20034;-75
2022/02/06 12:44:19;;;;;;;3.38;0.63;;;6.20;99.90;;;;;;5031251;28;20029;-75
2022/02/06 12:46:47;;;;;;;2.25;0.47;;;6.10;99.90;;;;;;5031319;28;20522;-75
2022/02/06 12:49:17;;;;;;;2.70;0.60;;;6.30;99.90;;;;;;5030688;28;20040;-75
2022/02/06 12:51:43;;;;;;;2.67;0.63;;;6.20;99.90;;;;;;5031093;28;20017;-75
2022/02/06 12:54:17;;;;;;;3.22;0.80;;;6.20;99.90;;;;;;5030138;28;20032;-75
2022/02/06 12:56:43;;;;;;;1.23;0.68;;;7.10;99.90;;;;;;5034918;28;20390;-75
2022/02/06 12:59:11;;;;;;;4.40;0.80;;;6.10;99.90;;;;;;5034719;28;20041;-75
2022/02/06 13:01:41;;;;;;;0.85;0.35;;;6.10;99.90;;;;;;5035030;28;20025;-75
2022/02/06 13:04:09;;;;;;;2.22;0.50;;;6.00;99.90;;;;;;5035244;28;20036;-75
2022/02/06 13:06:37;;;;;;;1.90;0.35;;;6.10;99.90;;;;;;5035279;28;20104;-75
2022/02/06 13:09:09;;;;;;;4.55;0.65;;;6.00;99.90;;;;;;5034447;28;20029;-75
2022/02/06 13:11:45;;;;;;;3.03;0.80;;;6.90;99.90;;;;;;5034785;28;20394;-75
2022/02/06 13:19:21;;;;;;;1.45;0.50;;;5.90;99.90;;;;;;5033540;28;20038;-75
2022/02/06 13:30:22;;;;;;;3.00;0.80;;;6.60;99.90;;;;;;5005399;28;20033;-75
2022/02/06 13:37:59;;;;;;;7.60;0.75;;;5.80;99.90;;;;;;5034740;28;20112;-75
2022/02/06 13:40:31;;;;;;;1.13;0.55;;;5.90;99.90;;;;;;5033666;28;20022;-74
2022/02/06 13:43:04;;;;;;;4.03;0.73;;;6.10;99.90;;;;;;5033183;28;20025;-75
2022/02/06 13:45:34;;;;;;;1.92;0.68;;;5.80;99.90;;;;;;5034532;28;20540;-75
2022/02/06 13:48:00;;;;;;;2.45;0.50;;;6.60;99.90;;;;;;5034318;28;20053;-75
2022/02/06 13:50:27;;;;;;;2.60;0.47;;;5.90;99.90;;;;;;5033437;28;20517;-74
2022/02/06 13:53:13;;;;;;;1.80;0.40;;;6.60;99.90;;;;;;5034457;28;20030;-74
2022/02/06 13:55:44;;;;;;;6.28;0.90;;;;;;;;;;5034576;28;20018;-75
2022/02/06 13:58:14;;;;;;;3.42;0.88;;;;;;;;;;5034016;28;20026;-75
2022/02/06 14:00:52;;;;;;;1.27;0.70;;;5.80;99.90;;;;;;5033305;28;20496;-76
2022/02/06 14:03:18;;;;;;;1.83;0.55;;;5.90;99.90;;;;;;5032616;28;20524;-75
2022/02/06 14:05:51;;;;;;;2.33;0.55;;;5.90;99.90;;;;;;5032842;28;20038;-75
2022/02/06 14:08:19;;;;;;;0.75;0.50;;;6.10;99.90;;;;;;5034009;28;20104;-75
2022/02/06 14:11:02;;;;;;;2.25;0.40;;;5.90;99.90;;;;;;5032938;28;20060;-75
2022/02/06 14:13:28;;;;;;;4.65;0.80;;;5.90;99.90;;;;;;5033688;28;20022;-75
2022/02/06 14:16:14;;;;;;;6.75;1.20;;;5.90;99.90;;;;;;5033830;28;20021;-75
2022/02/06 14:19:04;;;;;;;3.13;0.50;;;6.00;99.90;;;;;;5032977;28;20039;-75
2022/02/06 14:21:48;;;;;;;2.13;0.50;;;6.00;99.90;;;;;;5032024;28;20083;-76
2022/02/06 14:24:14;;;;;;;1.33;0.50;;;6.30;99.90;;;;;;5031756;28;20439;-75
2022/02/06 14:27:03;;;;;;;2.08;0.63;;;5.90;99.90;;;;;;5033144;28;20079;-75
2022/02/06 14:29:32;;;;;;;2.95;0.38;;;5.90;99.90;;;;;;5032683;28;20018;-75
2022/02/06 14:32:19;;;;;;;1.50;0.68;;;6.00;99.90;;;;;;5033159;28;20048;-75
2022/02/06 14:35:12;;;;;;;0.77;0.45;;;6.00;99.90;;;;;;5032332;28;20044;-75
2022/02/06 14:37:44;;;;;;;0.95;0.63;;;5.90;99.90;;;;;;5033440;28;20026;-75
2022/02/06 14:40:20;;;;;;;0.73;0.28;;;5.90;99.90;;;;;;5032646;28;20527;-75
2022/02/06 14:42:54;;;;;;;4.85;0.40;;;6.10;99.90;;;;;;5032403;28;20040;-75
2022/02/06 14:45:20;;;;;;;1.30;0.50;;;5.90;99.90;;;;;;5033431;28;20057;-75
2022/02/06 14:47:46;;;;;;;1.38;0.40;;;6.00;99.90;;;;;;5031744;28;20552;-75
2022/02/06 14:50:18;;;;;;;1.20;0.30;;;5.70;99.90;;;;;;5030807;28;20033;-75
2022/02/06 14:52:45;;;;;;;0.68;0.50;;;6.10;99.90;;;;;;5033052;28;20047;-75
2022/02/06 14:55:12;;;;;;;0.32;0.20;;;6.40;99.90;;;;;;5033621;28;20038;-75
2022/02/06 14:57:38;;;;;;;0.70;0.20;;;6.10;99.90;;;;;;5033667;28;20091;-75
2022/02/06 15:00:06;;;;;;;0.65;0.43;;;6.00;99.90;;;;;;5032650;28;20079;-75
2022/02/06 15:02:31;;;;;;;0.35;0.30;;;6.00;99.90;;;;;;5031649;28;20171;-75
2022/02/06 15:04:57;;;;;;;0.85;0.20;;;6.10;99.90;;;;;;5031810;28;20098;-75
2022/02/06 15:07:23;;;;;;;0.98;0.50;;;6.00;99.90;;;;;;5032956;28;20029;-75
2022/02/06 15:09:48;;;;;;;1.80;0.68;;;6.10;99.90;;;;;;5030948;28;20030;-75
2022/02/06 15:12:14;;;;;;;3.75;0.60;;;6.10;99.90;;;;;;5032313;28;20032;-75
2022/02/06 15:14:40;;;;;;;4.82;0.55;;;6.60;99.90;;;;;;5032794;28;20482;-76
2022/02/06 15:17:05;;;;;;;0.65;0.30;;;6.20;99.90;;;;;;5032189;28;20104;-75
2022/02/06 15:19:34;;;;;;;2.25;0.30;;;6.20;99.90;;;;;;5031441;28;20061;-75
2022/02/06 15:22:00;;;;;;;2.38;0.40;;;6.40;99.90;;;;;;5030929;28;20029;-75
2022/02/06 15:24:26;;;;;;;3.45;0.40;;;6.20;99.90;;;;;;5032135;28;20041;-75
2022/02/06 15:26:53;;;;;;;0.93;0.22;;;6.30;99.90;;;;;;5029104;28;20025;-75
2022/02/06 15:29:19;;;;;;;1.00;0.22;;;6.80;99.90;;;;;;5040395;28;20026;-75
2022/02/06 15:31:45;;;;;;;1.90;0.30;;;7.10;99.90;;;;;;5027932;28;20052;-76
2022/02/06 15:34:11;;;;;;;1.23;0.38;;;6.60;99.90;;;;;;5032112;28;20479;-75
2022/02/06 15:36:39;;;;;;;3.70;0.43;;;6.20;99.90;;;;;;5029980;28;20082;-75
2022/02/06 15:39:18;;;;;;;1.10;0.22;;;6.50;99.90;;;;;;5030189;28;20079;-76
2022/02/06 15:41:43;;;;;;;1.20;0.32;;;6.40;99.90;;;;;;5031930;28;20208;-76
2022/02/06 15:44:09;;;;;;;1.00;0.30;;;6.50;99.90;;;;;;5031820;28;20037;-75